createdAt,value
2019-03-15T00:00:35.503Z,99889.05
2019-03-15T00:05:37.944Z,99903.22
2019-03-15T00:10:40.396Z,99910.14
2019-03-15T00:15:42.848Z,99917.81
2019-03-15T00:20:45.297Z,99927.13
2019-03-15T00:25:47.746Z,99940.22
2019-03-15T00:30:50.193Z,99948.52
2019-03-15T00:35:52.642Z,99948.61
2019-03-15T00:40:55.085Z,99948.78
2019-03-15T00:45:57.537Z,99947.64
2019-03-15T00:50:59.970Z,99951.03
2019-03-15T00:56:02.455Z,99958.09
2019-03-15T01:01:04.896Z,99954.13
2019-03-15T01:06:07.346Z,99955.80
2019-03-15T01:11:09.792Z,99956.24
2019-03-15T01:16:12.269Z,99962.34
2019-03-15T01:21:14.724Z,99961.03
2019-03-15T01:26:17.170Z,99976.55
2019-03-15T01:31:19.625Z,99988.66
2019-03-15T01:36:22.078Z,99982.67
2019-03-15T01:41:24.581Z,99991.49
2019-03-15T01:46:27.021Z,99969.84
2019-03-15T01:51:29.431Z,99973.66
2019-03-15T01:56:31.974Z,99972.12
2019-03-15T02:01:34.342Z,99971.10
2019-03-15T02:06:36.788Z,99975.06
2019-03-15T02:11:39.231Z,99970.14
2019-03-15T02:16:41.672Z,99973.87
2019-03-15T02:21:44.244Z,99974.92
2019-03-15T02:26:46.690Z,99966.34
2019-03-15T02:31:49.154Z,99973.33
2019-03-15T02:36:51.601Z,99972.48
2019-03-15T02:41:54.060Z,99968.78
2019-03-15T02:46:56.511Z,99963.39
2019-03-15T02:51:58.958Z,99962.06
2019-03-15T02:57:01.414Z,99959.93
2019-03-15T03:02:03.874Z,99968.16
2019-03-15T03:07:06.326Z,99967.19
2019-03-15T03:12:08.790Z,99968.98
2019-03-15T03:17:11.243Z,99971.19
2019-03-15T03:22:13.686Z,99975.28
2019-03-15T03:27:16.136Z,99977.28
2019-03-15T03:32:18.602Z,99983.84
2019-03-15T03:37:21.049Z,99982.77
2019-03-15T03:42:23.516Z,99984.97
2019-03-15T03:47:25.944Z,99988.97
2019-03-15T03:52:28.391Z,99989.60
2019-03-15T03:57:30.839Z,99993.53
2019-03-15T04:02:33.811Z,99981.64
2019-03-15T04:07:35.749Z,99988.06
2019-03-15T04:12:38.185Z,99986.37
2019-03-15T04:17:40.715Z,99994.79
2019-03-15T04:22:43.164Z,100003.58
2019-03-15T04:27:45.618Z,100009.44
2019-03-15T04:32:48.076Z,100000.15
2019-03-15T04:37:50.525Z,100000.34
2019-03-15T04:42:52.972Z,99998.28
2019-03-15T04:47:55.416Z,99986.84
2019-03-15T04:52:57.876Z,99983.55
2019-03-15T04:58:00.326Z,99978.08
2019-03-15T05:03:02.793Z,99974.19
2019-03-15T05:08:05.240Z,99968.52
2019-03-15T05:13:07.693Z,99977.23
2019-03-15T05:18:10.163Z,99978.97
2019-03-15T05:23:12.603Z,99970.94
2019-03-15T05:28:15.086Z,99978.77
2019-03-15T05:33:17.584Z,99981.87
2019-03-15T05:38:20.056Z,99977.57
2019-03-15T05:43:22.511Z,99973.70
2019-03-15T05:48:24.968Z,99980.19
2019-03-15T05:53:27.484Z,99982.30
2019-03-15T05:58:30.120Z,99982.30
2019-03-15T06:03:32.396Z,99971.25
2019-03-15T06:08:34.864Z,99967.78
2019-03-15T06:13:37.321Z,99957.45
2019-03-15T06:18:39.789Z,99969.74
2019-03-15T06:23:42.264Z,99967.01
2019-03-15T06:28:44.727Z,99964.90
2019-03-15T06:33:47.171Z,99969.08
2019-03-15T06:38:49.637Z,99969.05
2019-03-15T06:43:52.111Z,99966.74
2019-03-15T06:48:55.093Z,99960.56
2019-03-15T06:54:10.553Z,99961.30
2019-03-15T06:58:59.462Z,99957.80
2019-03-15T07:04:01.950Z,99955.94
2019-03-15T07:09:04.386Z,99953.20
2019-03-15T07:14:06.840Z,99948.91
2019-03-15T07:19:09.422Z,99945.05
2019-03-15T07:24:24.118Z,99941.10
2019-03-15T07:29:14.345Z,99940.36
2019-03-15T07:34:16.808Z,99940.05
2019-03-15T07:39:19.264Z,99941.17
2019-03-15T07:44:21.730Z,99924.11
2019-03-15T07:49:24.218Z,99923.36
2019-03-15T07:54:37.477Z,99919.48
2019-03-15T07:59:29.241Z,99911.11
2019-03-15T08:04:31.694Z,99904.57
2019-03-15T08:09:34.158Z,99904.20
2019-03-15T08:14:36.615Z,99900.45
2019-03-15T08:19:39.070Z,99899.38
2019-03-15T08:24:51.028Z,99893.63
2019-03-15T08:29:44.029Z,99889.74
2019-03-15T08:34:46.484Z,99895.48
2019-03-15T08:39:48.936Z,99887.45
2019-03-15T08:44:51.391Z,99883.15
2019-03-15T08:49:53.854Z,99875.53
2019-03-15T08:55:05.134Z,99874.59
2019-03-15T08:59:58.777Z,99877.28
2019-03-15T09:05:01.235Z,99873.75
2019-03-15T09:10:03.899Z,99868.90
2019-03-15T09:15:06.139Z,99864.52
2019-03-15T09:20:11.527Z,99856.97
2019-03-15T09:25:19.229Z,99856.04
2019-03-15T09:30:23.815Z,99852.12
2019-03-15T09:35:18.879Z,99853.09
2019-03-15T09:40:21.348Z,99845.32
2019-03-15T09:45:23.788Z,99846.11
2019-03-15T09:50:36.039Z,99843.43
2019-03-15T09:55:33.161Z,99846.94
2019-03-15T10:00:31.331Z,99842.23
2019-03-15T10:05:33.775Z,99845.55
2019-03-15T10:10:36.728Z,99847.10
2019-03-15T10:15:39.199Z,99852.57
2019-03-15T10:20:41.645Z,99835.95
2019-03-15T10:25:47.532Z,99839.49
2019-03-15T10:30:46.578Z,99839.70
2019-03-15T10:35:49.098Z,99837.16
2019-03-15T10:40:51.510Z,99837.75
2019-03-15T10:45:53.957Z,99837.58
2019-03-15T10:50:56.407Z,99837.82
2019-03-15T10:56:00.469Z,99847.61
2019-03-15T11:01:01.318Z,99843.50
2019-03-15T11:06:03.776Z,99844.09
2019-03-15T11:11:06.255Z,99851.15
2019-03-15T11:16:08.713Z,99854.47
2019-03-15T11:21:11.170Z,99851.14
2019-03-15T11:26:14.235Z,99853.09
2019-03-15T11:31:16.978Z,99853.91
2019-03-15T11:36:19.423Z,99853.50
2019-03-15T11:41:21.875Z,99856.43
2019-03-15T11:46:24.391Z,99862.52
2019-03-15T11:51:26.848Z,99856.81
2019-03-15T11:56:29.312Z,99862.88
2019-03-15T12:01:31.775Z,99853.86
2019-03-15T12:06:34.241Z,99869.36
2019-03-15T12:11:36.704Z,99877.37
2019-03-15T12:16:39.169Z,99870.66
2019-03-15T12:21:41.634Z,99878.53
2019-03-15T12:26:44.083Z,99867.94
2019-03-15T12:31:46.577Z,99872.64
2019-03-15T12:36:49.058Z,99871.44
2019-03-15T12:41:51.548Z,99880.28
2019-03-15T12:46:54.033Z,99878.92
2019-03-15T12:51:56.503Z,99885.77
2019-03-15T12:56:58.963Z,99885.97
2019-03-15T13:02:01.401Z,99882.78
2019-03-15T13:07:03.960Z,99893.56
2019-03-15T13:12:06.359Z,99890.81
2019-03-15T13:17:08.832Z,99894.33
2019-03-15T13:22:11.277Z,99886.12
2019-03-15T13:27:13.745Z,99894.52
2019-03-15T13:32:16.226Z,99892.17
2019-03-15T13:37:18.681Z,99904.95
2019-03-15T13:42:21.142Z,99910.84
2019-03-15T13:47:23.596Z,99913.17
2019-03-15T13:52:26.131Z,99912.80
2019-03-15T13:57:28.525Z,99922.39
2019-03-15T14:02:30.983Z,99925.72
2019-03-15T14:07:33.433Z,99926.91
2019-03-15T14:12:35.887Z,99934.57
2019-03-15T14:17:38.344Z,99937.91
2019-03-15T14:22:40.869Z,99936.32
2019-03-15T14:27:43.263Z,99932.02
2019-03-15T14:32:45.701Z,99933.37
2019-03-15T14:37:48.175Z,99940.23
2019-03-15T14:42:50.876Z,99935.66
2019-03-15T14:47:53.186Z,99936.11
2019-03-15T14:52:55.692Z,99942.41
2019-03-15T14:58:00.185Z,99945.57
2019-03-15T15:03:00.703Z,99957.34
2019-03-15T15:08:03.172Z,99945.38
2019-03-15T15:13:05.649Z,99948.89
2019-03-15T15:18:08.083Z,99948.70
2019-03-15T15:23:10.557Z,99941.64
2019-03-15T15:28:13.030Z,99946.77
2019-03-15T15:33:15.504Z,99947.13
2019-03-15T15:38:17.982Z,99937.11
2019-03-15T15:43:20.448Z,99942.22
2019-03-15T15:48:22.944Z,99946.94
2019-03-15T15:53:25.394Z,99942.44
2019-03-15T15:58:27.825Z,99946.98
2019-03-15T16:03:30.302Z,99946.58
2019-03-15T16:08:32.784Z,99952.47
2019-03-15T16:13:35.225Z,99950.29
2019-03-15T16:18:37.832Z,99957.16
2019-03-15T16:23:40.204Z,99968.56
2019-03-15T16:28:42.651Z,99970.91
2019-03-15T16:33:45.115Z,99965.63
2019-03-15T16:38:47.591Z,99974.25
2019-03-15T16:43:50.062Z,99964.63
2019-03-15T16:48:52.535Z,99977.19
2019-03-15T16:53:55.028Z,99970.92
2019-03-15T16:58:57.478Z,99968.97
2019-03-15T17:03:59.940Z,99972.68
2019-03-15T17:09:02.516Z,99983.09
2019-03-15T17:14:05.006Z,99991.30
2019-03-15T17:19:07.442Z,99990.94
2019-03-15T17:24:09.892Z,99988.17
2019-03-15T17:29:12.353Z,99977.98
2019-03-15T17:34:14.808Z,99986.22
2019-03-15T17:39:17.273Z,99990.33
2019-03-15T17:44:19.735Z,100004.66
2019-03-15T17:49:22.199Z,100006.40
2019-03-15T17:54:24.648Z,100006.98
2019-03-15T17:59:27.133Z,100002.50
2019-03-15T18:04:29.613Z,100003.67
2019-03-15T18:09:32.077Z,100009.74
2019-03-15T18:14:34.534Z,100010.73
2019-03-15T18:19:36.989Z,100007.77
2019-03-15T18:24:39.443Z,100007.98
2019-03-15T18:29:41.914Z,100006.98
2019-03-15T18:34:44.397Z,100007.22
2019-03-15T18:39:46.890Z,100017.02
2019-03-15T18:44:49.361Z,100022.88
2019-03-15T18:49:51.825Z,100017.02
2019-03-15T18:54:54.280Z,100025.23
2019-03-15T18:59:56.755Z,100026.41
2019-03-15T19:04:59.205Z,100024.47
2019-03-15T19:10:01.680Z,100016.62
2019-03-15T19:15:04.145Z,100025.43
2019-03-15T19:20:06.631Z,100036.22
2019-03-15T19:25:09.195Z,100031.73
2019-03-15T19:30:14.633Z,100035.25
2019-03-15T19:35:17.112Z,100034.87
2019-03-15T19:40:19.580Z,100039.56
2019-03-15T19:45:22.056Z,100044.67
2019-03-15T19:50:24.514Z,100050.34
2019-03-15T19:55:26.979Z,100056.83
2019-03-15T20:00:29.449Z,100045.84
2019-03-15T20:05:31.912Z,100056.83
2019-03-15T20:10:34.396Z,100062.52
2019-03-15T20:15:36.871Z,100059.36
2019-03-15T20:20:39.386Z,100075.85
2019-03-15T20:25:41.886Z,100081.94
2019-03-15T20:30:51.763Z,100081.72
2019-03-15T20:35:46.862Z,100076.45
2019-03-15T20:40:49.327Z,100083.89
2019-03-15T20:45:51.827Z,100096.04
2019-03-15T20:50:54.305Z,100099.97
2019-03-15T20:55:56.827Z,100102.52
2019-03-15T21:00:59.510Z,100107.64
2019-03-15T21:06:02.222Z,100111.95
2019-03-15T21:11:04.689Z,100127.45
2019-03-15T21:16:07.152Z,100119.98
2019-03-15T21:21:09.612Z,100124.31
2019-03-15T21:26:12.221Z,100131.77
2019-03-15T21:31:14.693Z,100135.11
2019-03-15T21:36:17.169Z,100140.20
2019-03-15T21:41:19.633Z,100135.30
2019-03-15T21:46:22.097Z,100159.22
2019-03-15T21:51:24.601Z,100159.61
2019-03-15T21:56:27.085Z,100163.34
2019-03-15T22:01:29.649Z,100158.45
2019-03-15T22:06:32.045Z,100162.76
2019-03-15T22:11:34.505Z,100163.55
2019-03-15T22:16:36.991Z,100186.30
2019-03-15T22:21:39.463Z,100179.61
2019-03-15T22:26:41.944Z,100183.75
2019-03-15T22:31:44.461Z,100186.50
2019-03-15T22:36:46.948Z,100191.77
2019-03-15T22:41:49.406Z,100199.80
2019-03-15T22:46:51.872Z,100196.09
2019-03-15T22:51:54.345Z,100213.34
2019-03-15T22:56:56.840Z,100221.41
2019-03-15T23:01:59.363Z,100233.56
2019-03-15T23:07:01.839Z,100233.36
2019-03-15T23:12:04.301Z,100229.81
2019-03-15T23:17:06.780Z,100226.66
2019-03-15T23:22:09.244Z,100223.72
2019-03-15T23:27:11.724Z,100240.02
2019-03-15T23:32:14.192Z,100248.05
2019-03-15T23:37:16.661Z,100237.25
2019-03-15T23:42:19.401Z,100258.64
2019-03-15T23:47:21.842Z,100253.53
2019-03-15T23:52:24.313Z,100253.13
2019-03-15T23:57:26.797Z,100260.77
